createdAt,value
2023-02-25T00:46:09.776Z,2.00
2023-02-25T00:48:55.078Z,1.85
2023-02-25T00:51:40.291Z,1.77
2023-02-25T00:54:25.873Z,2.20
2023-02-25T00:57:11.017Z,2.20
2023-02-25T00:59:56.294Z,1.73
2023-02-25T01:48:47.129Z,2.60
2023-02-25T01:51:33.098Z,2.00
2023-02-25T01:54:20.903Z,1.77
2023-02-25T01:57:09.742Z,1.60
2023-02-25T01:59:55.273Z,1.80
2023-02-25T02:49:19.107Z,1.55
2023-02-25T02:52:15.334Z,1.43
2023-02-25T02:55:13.316Z,1.83
2023-02-25T02:58:04.887Z,1.70
2023-02-25T03:48:19.680Z,1.30
2023-02-25T03:51:06.687Z,1.30
2023-02-25T03:53:53.849Z,1.30
2023-02-25T03:56:48.797Z,1.23
2023-02-25T03:59:34.151Z,1.33
2023-02-25T04:48:24.080Z,1.48
2023-02-25T04:51:09.713Z,1.13
2023-02-25T04:53:55.064Z,1.30
2023-02-25T04:56:40.672Z,1.37
2023-02-25T04:59:26.679Z,1.20
2023-02-25T05:48:09.415Z,1.00
2023-02-25T05:51:01.940Z,1.23
2023-02-25T05:53:49.033Z,1.00
2023-02-25T05:56:34.109Z,0.90
2023-02-25T05:59:19.591Z,1.00
2023-02-25T06:02:04.935Z,0.80
2023-02-25T06:04:55.778Z,0.93
2023-02-25T06:07:40.797Z,0.80
2023-02-25T06:10:27.008Z,1.02
2023-02-25T06:13:12.472Z,0.80
2023-02-25T06:15:58.193Z,0.70
2023-02-25T06:19:03.886Z,0.70
2023-02-25T06:21:55.569Z,0.68
2023-02-25T06:24:41.069Z,0.63
2023-02-25T06:27:26.355Z,0.90
2023-02-25T06:30:12.004Z,0.80
2023-02-25T06:32:57.509Z,0.70
2023-02-25T06:35:42.819Z,0.80
2023-02-25T06:38:28.228Z,0.70
2023-02-25T06:41:16.571Z,0.80
2023-02-25T06:44:01.900Z,0.85
2023-02-25T06:46:51.231Z,0.65
2023-02-25T06:49:36.478Z,0.90
2023-02-25T06:52:21.736Z,0.80
2023-02-25T06:55:07.836Z,0.83
2023-02-25T06:57:54.685Z,0.80
2023-02-25T07:00:43.170Z,0.73
2023-02-25T07:03:28.372Z,0.88
2023-02-25T07:06:16.713Z,0.75
2023-02-25T07:09:02.213Z,0.70
2023-02-25T07:11:47.275Z,0.90
2023-02-25T07:14:32.503Z,0.75
2023-02-25T07:17:17.956Z,0.75
2023-02-25T07:20:03.508Z,0.65
2023-02-25T07:22:48.965Z,0.70
2023-02-25T07:25:34.549Z,0.70
2023-02-25T07:28:20.056Z,0.73
2023-02-25T07:31:14.367Z,0.70
2023-02-25T07:34:05.925Z,0.80
2023-02-25T07:36:51.115Z,0.83
2023-02-25T07:39:36.489Z,0.73
2023-02-25T07:42:21.761Z,0.52
2023-02-25T07:45:09.800Z,0.77
2023-02-25T07:47:55.046Z,0.70
2023-02-25T07:50:40.488Z,0.80
2023-02-25T07:53:25.805Z,0.63
2023-02-25T07:56:11.918Z,0.70
2023-02-25T07:58:57.811Z,0.60
2023-02-25T08:01:44.228Z,0.70
2023-02-25T08:04:29.981Z,0.80
2023-02-25T08:07:15.346Z,0.70
2023-02-25T08:10:00.519Z,0.73
2023-02-25T08:12:45.847Z,0.70
2023-02-25T08:15:32.285Z,0.70
2023-02-25T08:18:18.073Z,0.90
2023-02-25T08:21:04.557Z,0.93
2023-02-25T08:23:54.005Z,0.70
2023-02-25T08:26:39.488Z,0.77
2023-02-25T08:29:25.086Z,0.85
2023-02-25T08:32:10.756Z,1.10
2023-02-25T08:34:56.549Z,0.80
2023-02-25T08:37:45.278Z,0.70
2023-02-25T08:40:31.785Z,0.80
2023-02-25T08:43:17.275Z,0.80
2023-02-25T08:46:03.176Z,0.80
2023-02-25T08:48:50.523Z,0.73
2023-02-25T08:51:35.876Z,0.85
2023-02-25T08:54:21.169Z,0.80
2023-02-25T08:57:06.536Z,0.80
2023-02-25T08:59:51.895Z,1.00
2023-02-25T09:02:38.945Z,0.60
2023-02-25T09:05:24.519Z,0.93
2023-02-25T09:08:09.654Z,0.80
2023-02-25T09:10:54.892Z,0.70
2023-02-25T09:13:40.358Z,0.80
2023-02-25T09:16:30.949Z,0.80
2023-02-25T09:19:19.206Z,0.90
2023-02-25T09:22:06.238Z,0.73
2023-02-25T09:24:51.346Z,0.98
2023-02-25T09:27:36.762Z,0.70
2023-02-25T09:30:22.307Z,0.98
2023-02-25T09:33:07.774Z,0.60
2023-02-25T09:35:53.077Z,0.60
2023-02-25T09:38:39.982Z,0.80
2023-02-25T09:41:45.323Z,0.87
2023-02-25T09:44:34.160Z,0.60
2023-02-25T09:47:33.372Z,0.90
2023-02-25T09:50:46.535Z,0.90
2023-02-25T09:53:36.960Z,0.90
2023-02-25T09:56:26.576Z,0.70
2023-02-25T09:59:16.039Z,0.70
2023-02-25T10:02:45.201Z,0.70
2023-02-25T10:05:51.763Z,0.60
2023-02-25T10:08:56.546Z,0.50
2023-02-25T10:12:21.015Z,0.60
2023-02-25T10:15:12.586Z,0.65
2023-02-25T10:18:12.892Z,0.70
2023-02-25T10:21:01.664Z,0.70
2023-02-25T10:24:08.464Z,0.60
2023-02-25T10:27:03.586Z,0.70
2023-02-25T10:30:27.072Z,0.60
2023-02-25T10:33:24.315Z,0.98
2023-02-25T10:36:14.638Z,0.50
2023-02-25T10:39:00.425Z,0.73
2023-02-25T10:41:45.698Z,0.67
2023-02-25T10:44:30.974Z,0.80
2023-02-25T10:47:24.768Z,0.57
2023-02-25T10:50:19.475Z,0.60
2023-02-25T10:53:13.603Z,0.63
2023-02-25T10:55:59.687Z,0.70
2023-02-25T10:58:47.129Z,0.50
2023-02-25T11:01:40.175Z,0.60
2023-02-25T11:04:33.202Z,0.90
2023-02-25T11:07:41.533Z,0.60
2023-02-25T11:10:26.986Z,0.60
2023-02-25T11:13:28.383Z,0.73
2023-02-25T11:16:14.670Z,3.55
2023-02-25T11:19:04.660Z,9.40
2023-02-25T11:21:51.292Z,16.20
2023-02-25T11:24:38.740Z,16.37
2023-02-25T11:27:39.230Z,15.48
2023-02-25T11:39:32.617Z,13.40
2023-02-25T11:42:24.128Z,15.00
2023-02-25T11:45:22.464Z,15.00
2023-02-25T11:48:19.600Z,17.27
2023-02-25T11:51:17.475Z,45.75
2023-02-25T11:54:38.616Z,65.73
2023-02-25T11:57:47.427Z,52.83
2023-02-25T12:01:03.908Z,67.32
2023-02-25T12:04:20.050Z,130.85
2023-02-25T12:07:14.590Z,159.00
2023-02-25T12:10:02.914Z,157.77
2023-02-25T12:13:11.062Z,148.00
2023-02-25T12:16:11.516Z,136.07
2023-02-25T12:19:27.120Z,129.30
2023-02-25T12:22:46.321Z,123.28
2023-02-25T12:25:44.265Z,114.33
2023-02-25T12:29:18.864Z,124.65
2023-02-25T12:32:30.794Z,113.57
2023-02-25T12:35:22.999Z,114.40
2023-02-25T12:38:26.905Z,112.13
2023-02-25T12:41:45.705Z,109.83
2023-02-25T12:44:43.013Z,108.18
2023-02-25T12:47:49.368Z,105.40
2023-02-25T12:50:55.924Z,105.53
2023-02-25T12:54:39.049Z,109.50
2023-02-25T12:57:57.269Z,103.30
2023-02-25T13:01:01.094Z,72.72
2023-02-25T13:03:55.791Z,60.70
2023-02-25T13:07:09.305Z,78.78
2023-02-25T13:10:00.897Z,79.35
2023-02-25T13:13:09.894Z,86.80
2023-02-25T13:16:15.796Z,85.72
2023-02-25T13:19:39.838Z,87.10
2023-02-25T13:22:28.291Z,83.13
2023-02-25T13:25:19.369Z,83.10
2023-02-25T13:28:17.125Z,84.83
2023-02-25T13:31:29.222Z,84.20
2023-02-25T13:34:34.611Z,84.07
2023-02-25T13:37:46.011Z,76.72
2023-02-25T13:40:59.683Z,76.47
2023-02-25T13:43:53.765Z,75.60
2023-02-25T13:47:01.135Z,74.88
2023-02-25T13:50:20.615Z,71.43
2023-02-25T13:53:34.482Z,68.35
2023-02-25T13:56:32.456Z,67.57
2023-02-25T13:59:56.056Z,64.77
2023-02-25T14:02:50.907Z,62.17
2023-02-25T14:06:08.584Z,63.90
2023-02-25T14:09:32.266Z,62.05
2023-02-25T14:13:08.498Z,61.03
2023-02-25T14:16:18.230Z,63.27
2023-02-25T14:19:22.441Z,61.25
2023-02-25T14:22:16.840Z,61.58
2023-02-25T14:25:25.557Z,60.92
2023-02-25T14:28:19.646Z,59.85
2023-02-25T14:31:20.251Z,56.53
2023-02-25T14:34:24.420Z,57.67
2023-02-25T14:37:27.976Z,56.90
2023-02-25T14:40:27.970Z,56.08
2023-02-25T14:43:30.126Z,56.53
2023-02-25T14:46:51.551Z,55.27
2023-02-25T14:50:00.873Z,53.78
2023-02-25T14:53:20.371Z,54.20
2023-02-25T14:56:11.633Z,51.35
2023-02-25T14:59:21.734Z,52.55
2023-02-25T15:02:19.247Z,51.77
2023-02-25T15:05:49.262Z,51.13
2023-02-25T15:08:34.698Z,49.47
2023-02-25T15:11:23.399Z,49.60
2023-02-25T15:14:23.934Z,48.20
2023-02-25T15:17:12.501Z,49.37
2023-02-25T15:20:18.350Z,49.10
2023-02-25T15:23:04.319Z,48.05
2023-02-25T15:26:20.167Z,45.53
2023-02-25T15:29:05.768Z,45.72
2023-02-25T15:32:24.290Z,44.73
2023-02-25T15:35:14.744Z,44.22
2023-02-25T15:38:00.052Z,45.88
2023-02-25T15:40:57.884Z,44.15
2023-02-25T15:43:44.503Z,44.30
2023-02-25T15:46:35.971Z,41.87
2023-02-25T15:49:23.812Z,40.83
2023-02-25T15:52:39.854Z,39.47
2023-02-25T15:55:37.129Z,40.10
2023-02-25T15:58:25.480Z,38.30
2023-02-25T16:01:27.945Z,37.17
2023-02-25T16:04:44.828Z,37.25
2023-02-25T16:07:38.013Z,37.15
2023-02-25T16:10:47.421Z,34.97
2023-02-25T16:13:35.698Z,36.60
2023-02-25T16:16:23.100Z,35.40
2023-02-25T16:19:16.183Z,35.72
2023-02-25T16:22:10.496Z,34.92
2023-02-25T16:24:58.866Z,34.55
2023-02-25T16:28:03.255Z,34.72
2023-02-25T16:31:13.472Z,35.00
2023-02-25T16:34:05.973Z,33.60
2023-02-25T16:37:03.489Z,33.33
2023-02-25T16:39:48.730Z,33.20
2023-02-25T16:42:34.035Z,34.28
2023-02-25T16:45:29.240Z,32.27
2023-02-25T16:48:18.833Z,32.50
2023-02-25T16:51:12.604Z,30.75
2023-02-25T16:54:06.371Z,31.58
2023-02-25T16:56:59.681Z,30.52
2023-02-25T16:59:46.925Z,29.47
2023-02-25T17:02:32.320Z,29.02
2023-02-25T17:05:33.470Z,28.63
2023-02-25T17:08:18.975Z,27.63
2023-02-25T17:11:05.816Z,29.13
2023-02-25T17:13:55.697Z,27.30
2023-02-25T17:16:43.610Z,28.52
2023-02-25T17:19:29.134Z,28.52
2023-02-25T17:22:20.197Z,28.60
2023-02-25T17:25:11.131Z,25.05
2023-02-25T17:27:58.911Z,25.13
2023-02-25T17:30:48.555Z,25.70
2023-02-25T17:33:34.795Z,24.42
2023-02-25T17:36:25.149Z,24.75
2023-02-25T17:39:20.884Z,24.88
2023-02-25T17:42:36.008Z,25.07
2023-02-25T17:45:40.702Z,34.67
2023-02-25T17:48:32.261Z,45.50
2023-02-25T17:51:17.877Z,44.50
2023-02-25T17:54:08.015Z,55.97
2023-02-25T17:56:59.184Z,48.10
2023-02-25T17:59:56.638Z,50.00
2023-02-25T18:02:44.249Z,46.83
2023-02-25T18:05:29.682Z,40.25
2023-02-25T18:08:19.464Z,36.70
2023-02-25T18:11:25.899Z,32.13
2023-02-25T18:14:27.772Z,32.20
2023-02-25T18:17:40.433Z,48.47
2023-02-25T18:20:31.766Z,38.90
2023-02-25T18:23:21.566Z,37.92
2023-02-25T18:26:20.120Z,70.23
2023-02-25T18:29:08.806Z,55.67
2023-02-25T18:31:54.385Z,47.95
2023-02-25T18:34:39.974Z,46.08
2023-02-25T18:37:29.600Z,45.55
2023-02-25T18:40:20.016Z,42.80
2023-02-25T18:43:06.880Z,42.38
2023-02-25T18:45:52.279Z,43.05
2023-02-25T18:48:37.609Z,40.53
2023-02-25T18:51:22.717Z,41.33
2023-02-25T18:54:14.835Z,42.97
2023-02-25T18:57:00.286Z,40.17
2023-02-25T18:59:45.699Z,38.72
2023-02-25T19:02:30.917Z,94.93
2023-02-25T19:05:18.505Z,57.47
2023-02-25T19:08:11.796Z,48.27
2023-02-25T19:10:57.004Z,45.90
2023-02-25T19:13:42.842Z,44.13
2023-02-25T19:16:28.562Z,41.72
2023-02-25T19:19:14.047Z,39.50
2023-02-25T19:21:59.658Z,37.90
2023-02-25T19:24:47.258Z,37.45
2023-02-25T19:27:32.452Z,36.63
2023-02-25T19:30:20.174Z,35.20
2023-02-25T19:33:07.022Z,35.95
2023-02-25T19:35:52.302Z,33.43
2023-02-25T19:38:37.421Z,34.78
2023-02-25T19:41:22.866Z,33.55
2023-02-25T19:44:08.957Z,34.33
2023-02-25T19:46:54.241Z,33.38
2023-02-25T19:49:39.558Z,32.77
2023-02-25T19:52:25.327Z,32.58
2023-02-25T19:55:12.349Z,32.08
2023-02-25T19:57:57.517Z,31.90
2023-02-25T20:00:45.981Z,30.65
2023-02-25T20:03:31.580Z,28.00
2023-02-25T20:06:17.189Z,28.90
2023-02-25T20:09:05.879Z,28.77
2023-02-25T20:11:52.863Z,21.40
2023-02-25T20:14:37.892Z,20.48
2023-02-25T20:17:25.061Z,19.30
2023-02-25T20:20:12.580Z,17.65
2023-02-25T20:22:58.232Z,17.40
2023-02-25T20:25:43.229Z,18.25
2023-02-25T20:28:28.520Z,19.35
2023-02-25T20:31:17.524Z,18.83
2023-02-25T20:34:05.663Z,18.33
2023-02-25T20:36:56.647Z,18.85
2023-02-25T20:39:49.684Z,16.70
2023-02-25T20:42:35.390Z,13.63
2023-02-25T20:45:20.900Z,11.30
2023-02-25T20:48:06.220Z,10.68
2023-02-25T20:50:51.432Z,13.00
2023-02-25T20:53:36.650Z,12.25
2023-02-25T20:56:25.356Z,13.07
2023-02-25T20:59:12.019Z,13.07
2023-02-25T21:01:58.155Z,12.88
2023-02-25T21:04:44.164Z,11.98
2023-02-25T21:07:29.492Z,12.40
2023-02-25T21:10:14.636Z,10.73
2023-02-25T21:13:00.256Z,10.87
2023-02-25T21:15:45.405Z,11.38
2023-02-25T21:18:31.113Z,10.82
2023-02-25T21:21:20.255Z,10.70
2023-02-25T21:24:14.900Z,11.05
2023-02-25T21:27:01.273Z,9.70
2023-02-25T21:29:46.507Z,9.77
2023-02-25T21:32:31.843Z,9.82
2023-02-25T21:35:17.904Z,10.00
2023-02-25T21:38:03.349Z,10.70
2023-02-25T21:40:49.136Z,7.87
2023-02-25T21:43:34.402Z,4.53
2023-02-25T21:46:20.038Z,3.72
2023-02-25T21:49:05.274Z,4.60
2023-02-25T21:51:51.438Z,5.45
2023-02-25T21:54:37.230Z,5.57
2023-02-25T21:57:22.491Z,5.85
2023-02-25T22:00:11.032Z,6.20
2023-02-25T22:02:59.495Z,6.03
2023-02-25T22:05:46.166Z,5.60
2023-02-25T22:08:31.283Z,6.20
2023-02-25T22:11:22.136Z,5.60
2023-02-25T22:14:08.835Z,5.80
2023-02-25T22:16:53.736Z,5.25
2023-02-25T22:19:39.005Z,5.68
2023-02-25T22:22:24.197Z,5.43
2023-02-25T22:25:09.750Z,5.32
2023-02-25T22:27:54.920Z,5.50
2023-02-25T22:30:40.276Z,5.53
2023-02-25T22:33:26.025Z,5.10
2023-02-25T22:36:12.744Z,4.97
2023-02-25T22:38:58.003Z,4.85
2023-02-25T22:41:43.516Z,4.85
2023-02-25T22:44:29.029Z,5.45
2023-02-25T22:47:14.319Z,5.03
2023-02-25T22:49:59.832Z,4.73
2023-02-25T22:52:46.914Z,5.30
2023-02-25T22:55:33.670Z,5.00
2023-02-25T22:58:18.500Z,5.07
2023-02-25T23:01:03.755Z,4.90
2023-02-25T23:03:50.405Z,4.63
2023-02-25T23:06:43.564Z,4.53
2023-02-25T23:09:29.355Z,4.68
2023-02-25T23:12:14.576Z,4.30
2023-02-25T23:15:00.149Z,4.50
2023-02-25T23:17:46.005Z,4.70
2023-02-25T23:20:33.568Z,4.38
2023-02-25T23:23:18.978Z,4.18
2023-02-25T23:26:08.310Z,4.40
2023-02-25T23:28:58.947Z,4.28
2023-02-25T23:31:46.918Z,4.27
2023-02-25T23:34:32.392Z,4.65
2023-02-25T23:37:18.009Z,4.32
2023-02-25T23:40:03.718Z,4.10
2023-02-25T23:42:49.341Z,3.90
2023-02-25T23:45:34.354Z,3.90
2023-02-25T23:48:19.545Z,3.83
2023-02-25T23:51:06.789Z,3.60
2023-02-25T23:53:54.154Z,3.95
2023-02-25T23:56:39.477Z,3.97
2023-02-25T23:59:24.642Z,3.70
